Time;durP1;ratioP1;P1;durP2;ratioP2;P2;SDS_P1;SDS_P2;PMS_P1;PMS_P2;Temp;Humidity;BMP_temperature;BMP_pressure;BME280_temperature;BME280_humidity;BME280_pressure;Samples;Min_cycle;Max_cycle;Signal;HPM_P1;HPM_P2
2023/12/08 00:01:06;;;;;;;15.23;10.93;;;;;;;;;;5043247;28;20234;-75
2023/12/08 00:03:33;;;;;;;14.83;9.57;;;;;;;;;;5044812;28;20266;-75
2023/12/08 00:06:00;;;;;;;17.07;9.93;;;;;;;;;;5049648;28;20863;-75
2023/12/08 00:08:27;;;;;;;14.37;10.47;;;;;;;;;;5050170;28;20202;-75
2023/12/08 00:10:54;;;;;;;16.17;9.80;;;;;;;;;;5049731;28;20237;-75
2023/12/08 00:13:22;;;;;;;16.00;11.07;;;;;;;;;;5045652;28;20627;-76
2023/12/08 00:15:49;;;;;;;17.60;10.50;;;;;;;;;;5043048;28;20256;-76
2023/12/08 00:18:16;;;;;;;17.47;10.70;;;;;;;;;;5049387;28;20275;-75
2023/12/08 00:20:43;;;;;;;13.33;9.87;;;;;;;;;;5044195;28;20230;-75
2023/12/08 00:23:10;;;;;;;16.27;10.83;;;;;;;;;;5053425;28;20243;-75
2023/12/08 00:25:37;;;;;;;15.67;10.37;;;;;;;;;;5046384;28;20263;-75
2023/12/08 00:28:05;;;;;;;12.50;9.93;;;;;;;;;;5043742;28;20632;-75
2023/12/08 00:30:33;;;;;;;12.67;9.37;;;;;;;;;;5045898;28;20700;-76
2023/12/08 00:33:00;;;;;;;15.13;10.93;;;;;;;;;;5054722;28;20263;-75
2023/12/08 00:35:27;;;;;;;13.53;9.63;;;;;;;;;;5047161;28;20606;-76
2023/12/08 00:37:54;;;;;;;17.50;10.93;;;;;;;;;;5053428;28;20275;-75
2023/12/08 00:40:21;;;;;;;16.30;11.17;;;;;;;;;;5052747;28;20236;-75
2023/12/08 00:42:48;;;;;;;16.93;10.73;;;;;;;;;;5048359;28;20586;-75
2023/12/08 00:45:16;;;;;;;16.87;10.13;;;;;;;;;;5053171;28;20271;-76
2023/12/08 00:47:44;;;;;;;16.37;11.40;;;;;;;;;;5042196;28;20237;-75
2023/12/08 00:50:11;;;;;;;17.97;11.57;;;;;;;;;;5039062;28;20252;-76
2023/12/08 00:52:38;;;;;;;16.87;11.47;;;;;;;;;;5053654;28;20228;-75
2023/12/08 00:55:06;;;;;;;16.97;10.80;;;;;;;;;;5048958;28;20343;-76
2023/12/08 00:57:33;;;;;;;14.17;10.40;;;;;;;;;;5034148;28;20229;-75
2023/12/08 01:00:00;;;;;;;17.67;11.33;;;;;;;;;;5033301;28;20596;-76
2023/12/08 01:02:27;;;;;;;14.77;9.93;;;;;;;;;;5046817;28;20640;-75
2023/12/08 01:04:55;;;;;;;13.00;10.63;;;;;;;;;;5048690;28;20210;-75
2023/12/08 01:07:22;;;;;;;14.03;10.37;;;;;;;;;;5052308;28;20238;-75
2023/12/08 01:09:49;;;;;;;15.33;10.57;;;;;;;;;;5052301;28;20625;-75
2023/12/08 01:12:16;;;;;;;16.53;10.50;;;;;;;;;;5052613;28;20229;-76
2023/12/08 01:14:43;;;;;;;14.53;10.73;;;;;;;;;;5053588;28;20672;-75
2023/12/08 01:17:10;;;;;;;17.10;10.60;;;;;;;;;;5053242;28;20275;-75
2023/12/08 01:19:37;;;;;;;17.73;11.00;;;;;;;;;;5052957;28;20233;-76
2023/12/08 01:22:06;;;;;;;16.43;10.90;;;;;;;;;;5053021;28;20386;-76
2023/12/08 01:24:33;;;;;;;15.60;10.33;;;;;;;;;;5053269;28;20266;-75
2023/12/08 01:27:00;;;;;;;15.87;11.10;;;;;;;;;;5052584;28;20302;-76
2023/12/08 01:29:27;;;;;;;16.80;11.53;;;;;;;;;;5052777;28;20662;-76
2023/12/08 01:31:54;;;;;;;17.63;10.60;;;;;;;;;;5052082;28;20291;-75
2023/12/08 01:34:21;;;;;;;18.90;11.47;;;;;;;;;;5052855;28;20201;-76
2023/12/08 01:36:48;;;;;;;15.53;10.30;;;;;;;;;;5052723;28;20303;-76
2023/12/08 01:39:16;;;;;;;16.43;10.53;;;;;;;;;;5052597;28;20236;-76
2023/12/08 01:41:43;;;;;;;21.37;10.93;;;;;;;;;;5052676;28;20260;-76
2023/12/08 01:44:10;;;;;;;16.43;11.10;;;;;;;;;;5052566;28;20210;-76
2023/12/08 01:46:38;;;;;;;15.90;10.03;;;;;;;;;;5052673;28;20268;-76
2023/12/08 01:49:06;;;;;;;16.47;10.37;;;;;;;;;;5052846;28;20209;-76
2023/12/08 01:51:33;;;;;;;15.77;10.97;;;;;;;;;;5052251;28;20316;-76
2023/12/08 01:54:00;;;;;;;14.43;10.13;;;;;;;;;;5052894;28;20210;-75
2023/12/08 01:56:29;;;;;;;16.97;11.33;;;;;;;;;;5051969;28;20271;-76
2023/12/08 01:58:56;;;;;;;17.00;10.77;;;;;;;;;;5051601;28;20229;-75
2023/12/08 02:01:23;;;;;;;14.83;10.17;;;;;;;;;;5051425;28;20229;-75
2023/12/08 02:03:51;;;;;;;18.63;10.40;;;;;;;;;;5052301;28;20267;-75
2023/12/08 02:06:18;;;;;;;14.53;10.37;;;;;;;;;;5052029;28;20241;-76
2023/12/08 02:08:46;;;;;;;14.07;9.93;;;;;;;;;;5050599;28;20232;-76
2023/12/08 02:11:13;;;;;;;14.37;10.23;;;;;;;;;;5054788;28;20356;-75
2023/12/08 02:13:42;;;;;;;16.73;9.97;;;;;;;;;;5052247;28;20222;-75
2023/12/08 02:16:12;;;;;;;15.37;9.83;;;;;;;;;;5051371;28;20230;-75
2023/12/08 02:18:40;;;;;;;22.20;11.57;;;;;;;;;;5052562;28;20256;-75
2023/12/08 02:21:08;;;;;;;14.33;9.30;;;;;;;;;;5051683;28;20237;-75
2023/12/08 02:23:35;;;;;;;12.17;9.47;;;;;;;;;;5051772;28;20575;-75
2023/12/08 02:26:03;;;;;;;14.97;9.80;;;;;;;;;;5051689;28;20240;-75
2023/12/08 02:28:30;;;;;;;15.73;10.67;;;;;;;;;;5051539;28;20280;-75
2023/12/08 02:30:57;;;;;;;16.43;9.90;;;;;;;;;;5051347;28;20720;-75
2023/12/08 02:33:29;;;;;;;14.77;8.57;;;;;;;;;;5051838;28;20214;-75
2023/12/08 02:35:57;;;;;;;15.47;10.50;;;;;;;;;;5051406;28;20662;-75
2023/12/08 02:38:26;;;;;;;11.63;8.27;;;;;;;;;;5051445;28;20631;-75
2023/12/08 02:40:53;;;;;;;14.00;9.97;;;;;;;;;;5051352;28;20585;-75
2023/12/08 02:43:21;;;;;;;13.27;9.53;;;;;;;;;;5050021;28;20206;-75
2023/12/08 02:45:48;;;;;;;12.50;8.67;;;;;;;;;;5050173;28;20314;-75
2023/12/08 02:48:15;;;;;;;14.70;9.70;;;;;;;;;;5051005;28;20609;-75
2023/12/08 02:50:43;;;;;;;12.70;9.77;;;;;;;;;;5050854;28;20234;-75
2023/12/08 02:53:10;;;;;;;14.97;9.73;;;;;;;;;;5051637;28;20615;-75
2023/12/08 02:55:37;;;;;;;14.70;10.20;;;;;;;;;;5051078;28;20234;-75
2023/12/08 02:58:04;;;;;;;14.40;10.53;;;;;;;;;;5047924;28;20210;-75
2023/12/08 03:00:33;;;;;;;17.23;9.97;;;;;;;;;;5048950;28;20792;-75
2023/12/08 03:03:00;;;;;;;11.97;9.60;;;;;;;;;;5051715;28;20262;-75
2023/12/08 03:05:27;;;;;;;16.50;11.50;;;;;;;;;;5048835;28;20233;-75
2023/12/08 03:07:54;;;;;;;16.23;9.70;;;;;;;;;;5041697;28;20279;-75
2023/12/08 03:10:21;;;;;;;13.17;9.13;;;;;;;;;;5050553;28;20598;-76
2023/12/08 03:12:48;;;;;;;14.70;9.83;;;;;;;;;;5051635;28;20239;-75
2023/12/08 03:15:15;;;;;;;13.97;8.90;;;;;;;;;;5050894;28;20243;-76
2023/12/08 03:17:44;;;;;;;15.00;9.93;;;;;;;;;;5051568;28;20226;-75
2023/12/08 03:20:11;;;;;;;17.57;10.30;;;;;;;;;;5050539;28;20218;-76
2023/12/08 03:22:38;;;;;;;16.60;10.37;;;;;;;;;;5051173;28;20209;-75
2023/12/08 03:25:06;;;;;;;18.27;9.97;;;;;;;;;;5049869;28;20214;-76
2023/12/08 03:27:33;;;;;;;16.80;11.23;;;;;;;;;;5050941;28;20728;-75
2023/12/08 03:30:00;;;;;;;14.73;10.43;;;;;;;;;;5051219;28;20197;-75
2023/12/08 03:32:27;;;;;;;11.37;9.07;;;;;;;;;;5050622;28;20787;-75
2023/12/08 03:34:55;;;;;;;13.77;10.10;;;;;;;;;;5051158;28;20214;-75
2023/12/08 03:37:22;;;;;;;13.17;8.77;;;;;;;;;;5050534;28;20229;-75
2023/12/08 03:39:49;;;;;;;15.67;9.27;;;;;;;;;;5050526;28;20731;-75
2023/12/08 03:42:16;;;;;;;15.20;10.17;;;;;;;;;;5050639;28;20306;-75
2023/12/08 03:44:43;;;;;;;16.83;10.03;;;;;;;;;;5051118;28;20206;-75
2023/12/08 03:47:10;;;;;;;18.00;10.90;;;;;;;;;;5051031;28;20282;-74
2023/12/08 03:49:37;;;;;;;16.63;10.40;;;;;;;;;;5050866;28;20199;-75
2023/12/08 03:52:05;;;;;;;17.53;9.90;;;;;;;;;;5050772;28;20708;-74
2023/12/08 03:54:32;;;;;;;13.17;8.87;;;;;;;;;;5051868;28;20259;-73
2023/12/08 03:57:00;;;;;;;13.90;9.23;;;;;;;;;;5055734;28;20240;-73
2023/12/08 03:59:27;;;;;;;14.73;10.43;;;;;;;;;;5056737;28;20198;-74
2023/12/08 04:01:54;;;;;;;13.90;9.77;;;;;;;;;;5055724;28;20222;-75
2023/12/08 04:04:21;;;;;;;19.03;9.93;;;;;;;;;;5054911;28;20205;-75
2023/12/08 04:06:48;;;;;;;13.63;10.00;;;;;;;;;;5054512;28;20233;-75
2023/12/08 04:09:16;;;;;;;17.67;11.20;;;;;;;;;;5054891;28;20210;-75
2023/12/08 04:11:43;;;;;;;15.87;10.50;;;;;;;;;;5046007;28;20287;-75
2023/12/08 04:14:10;;;;;;;14.63;10.10;;;;;;;;;;5054696;28;20210;-75
2023/12/08 04:16:37;;;;;;;15.03;10.23;;;;;;;;;;5054184;28;20401;-75
2023/12/08 04:19:05;;;;;;;11.37;10.07;;;;;;;;;;5050011;28;20670;-75
2023/12/08 04:21:32;;;;;;;15.63;9.13;;;;;;;;;;5050247;28;20300;-75
2023/12/08 04:23:59;;;;;;;12.73;8.83;;;;;;;;;;5050743;28;20556;-75
2023/12/08 04:26:27;;;;;;;14.93;10.33;;;;;;;;;;5054014;28;20291;-75
2023/12/08 04:28:54;;;;;;;14.10;8.73;;;;;;;;;;5054793;28;20209;-75
2023/12/08 04:31:22;;;;;;;19.30;11.63;;;;;;;;;;5052300;28;20637;-75
2023/12/08 04:33:49;;;;;;;17.77;11.03;;;;;;;;;;5054544;28;20213;-75
2023/12/08 04:36:16;;;;;;;15.27;9.67;;;;;;;;;;5054080;28;20237;-75
2023/12/08 04:38:43;;;;;;;14.87;10.57;;;;;;;;;;5054212;28;20206;-75
2023/12/08 04:41:10;;;;;;;13.77;10.80;;;;;;;;;;5048182;28;20263;-75
2023/12/08 04:43:38;;;;;;;16.53;9.93;;;;;;;;;;5054041;28;20214;-75
2023/12/08 04:46:05;;;;;;;15.07;10.43;;;;;;;;;;5053587;28;20229;-75
2023/12/08 04:48:32;;;;;;;16.03;10.40;;;;;;;;;;5053977;28;20210;-76
2023/12/08 04:50:59;;;;;;;14.23;9.87;;;;;;;;;;5053447;28;20221;-75
2023/12/08 04:53:26;;;;;;;15.20;11.00;;;;;;;;;;5053849;28;20296;-75
2023/12/08 04:55:53;;;;;;;14.77;10.13;;;;;;;;;;5053803;28;20260;-76
2023/12/08 04:58:21;;;;;;;17.43;11.27;;;;;;;;;;5053906;28;20218;-76
2023/12/08 05:00:50;;;;;;;15.43;9.97;;;;;;;;;;5053293;28;20241;-76
2023/12/08 05:03:17;;;;;;;14.03;10.10;;;;;;;;;;5053323;28;20294;-76
2023/12/08 05:05:44;;;;;;;14.57;10.87;;;;;;;;;;5053347;28;20661;-76
2023/12/08 05:08:12;;;;;;;22.40;10.00;;;;;;;;;;5053734;28;20293;-76
2023/12/08 05:10:39;;;;;;;14.93;10.80;;;;;;;;;;5052750;28;20242;-76
2023/12/08 05:13:06;;;;;;;15.70;10.13;;;;;;;;;;5053719;28;20214;-76
2023/12/08 05:15:33;;;;;;;17.67;9.80;;;;;;;;;;5053102;28;20241;-75
2023/12/08 05:18:00;;;;;;;16.47;10.23;;;;;;;;;;5053671;28;20225;-76
2023/12/08 05:20:28;;;;;;;12.73;9.23;;;;;;;;;;5052107;28;20237;-76
2023/12/08 05:22:55;;;;;;;14.13;9.87;;;;;;;;;;5048662;28;20619;-76
2023/12/08 05:25:22;;;;;;;14.53;9.93;;;;;;;;;;5046773;28;20202;-76
2023/12/08 05:27:49;;;;;;;14.70;10.20;;;;;;;;;;5053729;28;20233;-76
2023/12/08 05:30:16;;;;;;;16.53;10.40;;;;;;;;;;5051745;28;20611;-76
2023/12/08 05:32:43;;;;;;;14.13;8.73;;;;;;;;;;5053249;28;20601;-76
2023/12/08 05:35:11;;;;;;;16.80;10.40;;;;;;;;;;5052791;28;20285;-76
2023/12/08 05:37:38;;;;;;;14.20;9.50;;;;;;;;;;5052811;28;20585;-76
2023/12/08 05:40:06;;;;;;;12.73;9.67;;;;;;;;;;5052613;28;20237;-76
2023/12/08 05:42:33;;;;;;;16.93;10.83;;;;;;;;;;5053147;28;20212;-76
2023/12/08 05:45:00;;;;;;;13.63;9.30;;;;;;;;;;5053086;28;20202;-76
2023/12/08 05:47:27;;;;;;;16.13;10.53;;;;;;;;;;5052259;28;20303;-76
2023/12/08 05:49:54;;;;;;;16.37;9.33;;;;;;;;;;5050778;28;20237;-76
2023/12/08 05:52:23;;;;;;;10.37;7.67;;;;;;;;;;5052102;28;20230;-76
2023/12/08 05:54:50;;;;;;;15.60;10.03;;;;;;;;;;5045908;28;20205;-76
2023/12/08 05:57:17;;;;;;;14.40;9.23;;;;;;;;;;5051808;28;20744;-75
2023/12/08 05:59:44;;;;;;;18.13;10.10;;;;;;;;;;5052820;28;20210;-75
2023/12/08 06:02:11;;;;;;;15.33;9.57;;;;;;;;;;5052287;28;20253;-75
2023/12/08 06:04:38;;;;;;;22.07;8.90;;;;;;;;;;5052670;28;20209;-75
2023/12/08 06:07:05;;;;;;;16.17;10.27;;;;;;;;;;5052269;28;20765;-75
2023/12/08 06:09:33;;;;;;;15.00;9.57;;;;;;;;;;5052398;28;20210;-75
2023/12/08 06:12:01;;;;;;;12.43;9.33;;;;;;;;;;5050456;28;20226;-74
2023/12/08 06:14:28;;;;;;;15.33;8.53;;;;;;;;;;5051804;28;20213;-74
2023/12/08 06:16:55;;;;;;;11.67;8.47;;;;;;;;;;5051185;28;20704;-75
2023/12/08 06:19:22;;;;;;;13.80;10.07;;;;;;;;;;5052041;28;20248;-75
2023/12/08 06:21:49;;;;;;;14.83;7.63;;;;;;;;;;5051871;28;20233;-74
2023/12/08 06:24:16;;;;;;;10.47;8.00;;;;;;;;;;5052122;28;20198;-74
2023/12/08 06:26:45;;;;;;;6.03;5.07;;;;;;;;;;5051563;28;20237;-74
2023/12/08 06:29:12;;;;;;;11.13;7.77;;;;;;;;;;5052516;28;20215;-74
2023/12/08 06:31:39;;;;;;;9.00;6.67;;;;;;;;;;5051387;28;20283;-74
2023/12/08 06:34:06;;;;;;;11.70;8.63;;;;;;;;;;5052275;28;20205;-74
2023/12/08 06:36:33;;;;;;;12.17;8.57;;;;;;;;;;5051524;28;20234;-74
2023/12/08 06:39:00;;;;;;;13.43;8.53;;;;;;;;;;5051983;28;20212;-74
2023/12/08 06:41:27;;;;;;;9.07;6.87;;;;;;;;;;5051132;28;20576;-74
2023/12/08 06:43:55;;;;;;;10.20;7.73;;;;;;;;;;5051887;28;20205;-74
2023/12/08 06:46:22;;;;;;;10.57;8.57;;;;;;;;;;5051348;28;20237;-74
2023/12/08 06:48:49;;;;;;;12.33;7.97;;;;;;;;;;5051616;28;20679;-74
2023/12/08 06:51:16;;;;;;;9.20;7.13;;;;;;;;;;5050978;28;20746;-74
2023/12/08 06:53:43;;;;;;;14.63;8.77;;;;;;;;;;5051250;28;20272;-74
2023/12/08 06:56:11;;;;;;;12.93;9.43;;;;;;;;;;5051135;28;20237;-74
2023/12/08 06:58:38;;;;;;;17.47;9.97;;;;;;;;;;5051287;28;20213;-74
2023/12/08 07:01:06;;;;;;;16.27;10.00;;;;;;;;;;5050973;28;20693;-75
2023/12/08 07:03:33;;;;;;;13.77;9.53;;;;;;;;;;5051144;28;20210;-74
2023/12/08 07:06:01;;;;;;;15.07;9.07;;;;;;;;;;5051061;28;20287;-74
2023/12/08 07:08:28;;;;;;;17.03;10.33;;;;;;;;;;5051100;28;20255;-75
2023/12/08 07:10:55;;;;;;;12.97;9.77;;;;;;;;;;5050603;28;20746;-75
2023/12/08 07:13:22;;;;;;;13.77;8.83;;;;;;;;;;5050799;28;20210;-75
2023/12/08 07:15:49;;;;;;;16.07;9.63;;;;;;;;;;5050592;28;20786;-75
2023/12/08 07:18:18;;;;;;;15.20;9.47;;;;;;;;;;5050907;28;20201;-75
2023/12/08 07:20:45;;;;;;;17.27;10.07;;;;;;;;;;5043496;28;20235;-75
2023/12/08 07:23:12;;;;;;;17.70;10.83;;;;;;;;;;5043906;28;20271;-75
2023/12/08 07:25:39;;;;;;;13.53;9.77;;;;;;;;;;5047290;28;20630;-75
2023/12/08 07:28:06;;;;;;;13.27;9.43;;;;;;;;;;5050029;28;20206;-75
2023/12/08 07:30:33;;;;;;;15.57;10.63;;;;;;;;;;5045135;28;20245;-75
2023/12/08 07:33:00;;;;;;;14.50;9.77;;;;;;;;;;5049904;28;20625;-75
2023/12/08 07:35:29;;;;;;;17.60;10.03;;;;;;;;;;5049342;28;20704;-75
2023/12/08 07:37:56;;;;;;;14.10;11.47;;;;;;;;;;5050268;28;20234;-75
2023/12/08 07:40:23;;;;;;;17.20;10.30;;;;;;;;;;5049143;28;20291;-75
2023/12/08 07:42:50;;;;;;;16.30;9.83;;;;;;;;;;5047932;28;20202;-75
2023/12/08 07:45:17;;;;;;;17.30;10.47;;;;;;;;;;5048794;28;20206;-75
2023/12/08 07:47:44;;;;;;;21.07;12.30;;;;;;;;;;5049615;28;20295;-75
2023/12/08 07:50:11;;;;;;;19.17;11.77;;;;;;;;;;5049064;28;20755;-76
2023/12/08 07:52:41;;;;;;;21.57;11.73;;;;;;;;;;5047619;28;20259;-75
2023/12/08 07:55:09;;;;;;;16.33;10.70;;;;;;;;;;5041356;28;20210;-75
2023/12/08 07:57:36;;;;;;;20.03;12.83;;;;;;;;;;5037896;28;20233;-75
2023/12/08 08:00:04;;;;;;;17.63;11.53;;;;;;;;;;5047956;28;20202;-76
2023/12/08 08:02:31;;;;;;;16.40;11.77;;;;;;;;;;5048896;28;20955;-76
2023/12/08 08:04:58;;;;;;;15.83;11.10;;;;;;;;;;5049633;28;20210;-75
2023/12/08 08:07:25;;;;;;;17.07;10.80;;;;;;;;;;5048909;28;20233;-75
2023/12/08 08:09:54;;;;;;;17.23;10.87;;;;;;;;;;5046922;28;20567;-75
2023/12/08 08:12:21;;;;;;;18.70;11.33;;;;;;;;;;5042607;28;20291;-76
2023/12/08 08:14:48;;;;;;;17.87;10.97;;;;;;;;;;5049735;28;20296;-75
2023/12/08 08:17:15;;;;;;;19.80;11.33;;;;;;;;;;5047938;28;20292;-75
2023/12/08 08:19:42;;;;;;;14.33;9.97;;;;;;;;;;5040854;28;20261;-74
2023/12/08 08:22:09;;;;;;;17.03;11.23;;;;;;;;;;5045702;28;20752;-75
2023/12/08 08:24:36;;;;;;;17.17;12.27;;;;;;;;;;5048498;28;20209;-75
2023/12/08 08:27:05;;;;;;;17.30;11.27;;;;;;;;;;5048461;28;20646;-74
2023/12/08 08:29:32;;;;;;;16.57;11.30;;;;;;;;;;5048764;28;20214;-75
2023/12/08 08:31:59;;;;;;;18.97;11.57;;;;;;;;;;5048740;28;20226;-74
2023/12/08 08:34:27;;;;;;;16.57;10.10;;;;;;;;;;5048883;28;20213;-75
2023/12/08 08:36:54;;;;;;;17.10;10.90;;;;;;;;;;5048702;28;20229;-75
2023/12/08 08:39:21;;;;;;;16.73;10.90;;;;;;;;;;5049663;28;20213;-74
2023/12/08 08:41:49;;;;;;;20.33;11.43;;;;;;;;;;5051899;28;20245;-73
2023/12/08 08:44:18;;;;;;;13.80;9.50;;;;;;;;;;5054686;28;20213;-74
2023/12/08 08:46:45;;;;;;;17.37;11.23;;;;;;;;;;5053331;28;20316;-75
2023/12/08 08:49:12;;;;;;;16.17;9.90;;;;;;;;;;5052435;28;20285;-75
2023/12/08 08:51:40;;;;;;;26.70;10.80;;;;;;;;;;5051146;28;20230;-76
2023/12/08 08:54:07;;;;;;;16.47;11.80;;;;;;;;;;5051900;28;20208;-75
2023/12/08 08:56:34;;;;;;;21.33;12.57;;;;;;;;;;5051298;28;20249;-76
2023/12/08 08:59:01;;;;;;;23.87;11.37;;;;;;;;;;5052225;28;20260;-76
2023/12/08 09:01:29;;;;;;;16.23;11.17;;;;;;;;;;5051083;28;20234;-76
2023/12/08 09:03:56;;;;;;;16.73;11.00;;;;;;;;;;5051569;28;20206;-76
2023/12/08 09:06:24;;;;;;;16.13;11.10;;;;;;;;;;5051605;28;20283;-77
2023/12/08 09:08:51;;;;;;;17.40;11.03;;;;;;;;;;5051598;28;20288;-77
2023/12/08 09:11:18;;;;;;;17.57;10.40;;;;;;;;;;5051409;28;20229;-77
2023/12/08 09:13:45;;;;;;;17.03;10.67;;;;;;;;;;5051511;28;20214;-77
2023/12/08 09:16:12;;;;;;;18.10;10.73;;;;;;;;;;5051575;28;20295;-77
2023/12/08 09:18:41;;;;;;;17.27;9.60;;;;;;;;;;5051848;28;20256;-76
2023/12/08 09:21:08;;;;;;;17.67;10.13;;;;;;;;;;5050260;28;20647;-77
2023/12/08 09:23:35;;;;;;;13.63;8.90;;;;;;;;;;5051202;28;20554;-76
2023/12/08 09:26:02;;;;;;;13.47;9.20;;;;;;;;;;5051164;28;20250;-76
2023/12/08 09:28:29;;;;;;;17.13;9.60;;;;;;;;;;5051620;28;20209;-76
2023/12/08 09:30:56;;;;;;;11.00;8.43;;;;;;;;;;5050900;28;20230;-76
2023/12/08 09:33:23;;;;;;;12.27;9.67;;;;;;;;;;5050655;28;20237;-75
2023/12/08 09:35:52;;;;;;;14.77;8.87;;;;;;;;;;5050720;28;20322;-76
2023/12/08 09:38:19;;;;;;;14.57;10.03;;;;;;;;;;5051402;28;20665;-74
2023/12/08 09:40:47;;;;;;;13.97;9.60;;;;;;;;;;5050102;28;20320;-74
2023/12/08 09:43:17;;;;;;;14.73;9.80;;;;;;;;;;5046824;28;20279;-74
2023/12/08 09:45:45;;;;;;;17.57;10.43;;;;;;;;;;5048400;28;20337;-74
2023/12/08 09:48:13;;;;;;;16.17;11.77;;;;;;;;;;5051690;28;20202;-74
2023/12/08 09:50:41;;;;;;;17.13;11.10;;;;;;;;;;5050525;28;20303;-74
2023/12/08 09:53:10;;;;;;;17.07;9.93;;;;;;;;;;5050552;28;20564;-74
2023/12/08 09:55:37;;;;;;;19.87;11.27;;;;;;;;;;5050160;28;20260;-74
2023/12/08 09:58:05;;;;;;;18.57;10.50;;;;;;;;;;5044859;28;20228;-74
2023/12/08 10:00:33;;;;;;;15.13;10.50;;;;;;;;;;5050460;28;20240;-74
2023/12/08 10:03:01;;;;;;;15.17;9.77;;;;;;;;;;5051095;28;20226;-74
2023/12/08 10:05:28;;;;;;;19.87;10.67;;;;;;;;;;5050457;28;20388;-74
2023/12/08 10:07:56;;;;;;;14.83;10.10;;;;;;;;;;5050739;28;20229;-74
2023/12/08 10:10:25;;;;;;;14.77;10.00;;;;;;;;;;5050042;28;20230;-75
2023/12/08 10:12:52;;;;;;;15.53;10.40;;;;;;;;;;5050427;28;20218;-75
2023/12/08 10:15:19;;;;;;;16.83;9.40;;;;;;;;;;5049859;28;20213;-74
2023/12/08 10:17:48;;;;;;;18.70;10.63;;;;;;;;;;5050673;28;20234;-75
2023/12/08 10:20:15;;;;;;;16.50;10.37;;;;;;;;;;5050411;28;20260;-75
2023/12/08 10:22:46;;;;;;;15.70;10.63;;;;;;;;;;5050057;28;20259;-75
2023/12/08 10:25:13;;;;;;;16.07;9.93;;;;;;;;;;5050153;28;20255;-74
2023/12/08 10:27:42;;;;;;;18.70;10.77;;;;;;;;;;5050844;28;20259;-75
2023/12/08 10:30:09;;;;;;;15.93;9.73;;;;;;;;;;5050898;28;20202;-74
2023/12/08 10:32:36;;;;;;;20.80;10.83;;;;;;;;;;5047737;28;20206;-74
2023/12/08 10:35:03;;;;;;;19.10;11.23;;;;;;;;;;5050344;28;20240;-75
2023/12/08 10:37:31;;;;;;;19.43;11.67;;;;;;;;;;5052915;28;20226;-73
2023/12/08 10:39:58;;;;;;;23.80;12.40;;;;;;;;;;5055664;28;20210;-74
2023/12/08 10:42:25;;;;;;;22.00;12.03;;;;;;;;;;5054705;28;20285;-72
2023/12/08 10:44:53;;;;;;;21.37;13.70;;;;;;;;;;5050200;28;20770;-74
2023/12/08 10:47:21;;;;;;;24.33;14.37;;;;;;;;;;5049185;28;20229;-75
2023/12/08 10:49:48;;;;;;;24.43;14.60;;;;;;;;;;5045858;28;20289;-75
2023/12/08 10:52:16;;;;;;;39.27;16.97;;;;;;;;;;5049676;28;20226;-75
2023/12/08 10:54:43;;;;;;;40.57;18.60;;;;;;;;;;5047970;28;20205;-75
2023/12/08 10:57:11;;;;;;;32.00;15.30;;;;;;;;;;5049927;28;20368;-75
2023/12/08 10:59:41;;;;;;;34.43;16.80;;;;;;;;;;5049508;28;20213;-75
2023/12/08 11:02:17;;;;;;;40.23;18.20;;;;;;;;;;5042199;28;20225;-75
2023/12/08 11:04:45;;;;;;;29.53;13.83;;;;;;;;;;5049381;28;20212;-75
2023/12/08 11:07:15;;;;;;;27.60;15.53;;;;;;;;;;5048889;28;20241;-75
2023/12/08 11:09:42;;;;;;;29.37;15.43;;;;;;;;;;5043909;28;20215;-75
2023/12/08 11:12:11;;;;;;;33.70;14.47;;;;;;;;;;5048965;28;20230;-74
2023/12/08 11:14:39;;;;;;;27.47;15.27;;;;;;;;;;5049401;28;20257;-75
2023/12/08 11:17:11;;;;;;;25.20;15.10;;;;;;;;;;5048948;28;20903;-74
2023/12/08 11:19:41;;;;;;;26.97;15.27;;;;;;;;;;5049558;28;20210;-74
2023/12/08 11:22:08;;;;;;;31.17;15.73;;;;;;;;;;5048355;28;20229;-75
2023/12/08 11:24:36;;;;;;;25.30;15.10;;;;;;;;;;5047863;28;20210;-75
2023/12/08 11:27:07;;;;;;;27.87;15.33;;;;;;;;;;5048483;28;20320;-74
2023/12/08 11:29:40;;;;;;;29.33;15.33;;;;;;;;;;5049263;28;20687;-74
2023/12/08 11:32:11;;;;;;;30.90;15.20;;;;;;;;;;5040632;28;20230;-75
2023/12/08 11:34:43;;;;;;;30.43;14.17;;;;;;;;;;5049239;28;20623;-75
2023/12/08 11:37:12;;;;;;;26.17;14.37;;;;;;;;;;5041148;28;20237;-75
2023/12/08 11:39:40;;;;;;;25.60;15.40;;;;;;;;;;5049132;28;20210;-75
2023/12/08 11:42:08;;;;;;;25.20;14.43;;;;;;;;;;5048735;28;20313;-75
2023/12/08 11:44:36;;;;;;;26.47;14.07;;;;;;;;;;5049356;28;20293;-75
2023/12/08 11:47:04;;;;;;;27.83;14.87;;;;;;;;;;5046345;28;20313;-75
2023/12/08 11:49:31;;;;;;;23.57;13.10;;;;;;;;;;5043489;28;20699;-75
2023/12/08 11:52:14;;;;;;;24.70;12.97;;;;;;;;;;5045569;28;20697;-75
2023/12/08 11:55:00;;;;;;;24.03;14.53;;;;;;;;;;5049232;28;20206;-75
2023/12/08 11:57:28;;;;;;;25.43;12.93;;;;;;;;;;5048749;28;20237;-75
2023/12/08 11:59:55;;;;;;;22.77;13.53;;;;;;;;;;5049061;28;20210;-75
2023/12/08 12:02:22;;;;;;;19.60;12.83;;;;;;;;;;5048154;28;20222;-75
2023/12/08 12:04:49;;;;;;;20.00;12.33;;;;;;;;;;5049330;28;20620;-75
2023/12/08 12:07:19;;;;;;;24.27;12.90;;;;;;;;;;5041467;28;20321;-74
2023/12/08 12:09:48;;;;;;;20.50;12.53;;;;;;;;;;5047879;28;20292;-74
2023/12/08 12:12:20;;;;;;;26.60;13.07;;;;;;;;;;5048713;28;20226;-75
2023/12/08 12:14:49;;;;;;;22.23;12.80;;;;;;;;;;5050177;28;20317;-75
2023/12/08 12:17:16;;;;;;;25.43;14.17;;;;;;;;;;5051682;28;20244;-75
2023/12/08 12:19:45;;;;;;;21.53;12.60;;;;;;;;;;5053561;28;20297;-74
2023/12/08 12:22:12;;;;;;;24.60;14.33;;;;;;;;;;5053356;28;20702;-75
2023/12/08 12:24:40;;;;;;;19.87;12.00;;;;;;;;;;5053712;28;20592;-75
2023/12/08 12:27:07;;;;;;;25.83;13.20;;;;;;;;;;5053138;28;20229;-75
2023/12/08 12:29:34;;;;;;;21.37;12.97;;;;;;;;;;5053212;28;20743;-75
2023/12/08 12:32:03;;;;;;;28.03;14.07;;;;;;;;;;5052970;28;20232;-74
2023/12/08 12:34:29;;;;;;;28.73;14.97;;;;;;;;;;5053838;28;20608;-75
2023/12/08 12:36:57;;;;;;;27.83;14.97;;;;;;;;;;5053213;28;20249;-74
2023/12/08 12:39:24;;;;;;;23.57;14.50;;;;;;;;;;5053349;28;20206;-75
2023/12/08 12:41:58;;;;;;;26.47;15.07;;;;;;;;;;5048015;28;20230;-75
2023/12/08 12:44:25;;;;;;;23.13;12.90;;;;;;;;;;5043864;28;20285;-75
2023/12/08 12:46:53;;;;;;;24.40;13.83;;;;;;;;;;5048082;28;20237;-74
2023/12/08 12:49:20;;;;;;;24.77;14.30;;;;;;;;;;5053130;28;20646;-73
2023/12/08 12:51:46;;;;;;;30.00;15.10;;;;;;;;;;5051831;28;20283;-75
2023/12/08 12:54:13;;;;;;;26.63;14.07;;;;;;;;;;5053057;28;20202;-74
2023/12/08 12:56:50;;;;;;;24.93;14.87;;;;;;;;;;5052626;28;20610;-74
2023/12/08 12:59:18;;;;;;;27.67;14.33;;;;;;;;;;5051215;28;20831;-74
2023/12/08 13:01:47;;;;;;;29.87;13.20;;;;;;;;;;5050683;28;20233;-73
2023/12/08 13:04:15;;;;;;;26.37;12.73;;;;;;;;;;5053376;28;20320;-75
2023/12/08 13:06:42;;;;;;;25.27;13.63;;;;;;;;;;5052419;28;20299;-74
2023/12/08 13:09:09;;;;;;;27.50;13.13;;;;;;;;;;5053106;28;20645;-75
2023/12/08 13:11:37;;;;;;;26.17;13.87;;;;;;;;;;5051881;28;20882;-73
2023/12/08 13:14:04;;;;;;;26.27;13.37;;;;;;;;;;5052730;28;20214;-73
2023/12/08 13:16:34;;;;;;;23.93;13.97;;;;;;;;;;5052150;28;20247;-73
2023/12/08 13:19:01;;;;;;;22.07;13.47;;;;;;;;;;5052742;28;20560;-73
2023/12/08 13:21:28;;;;;;;29.77;15.77;;;;;;;;;;5051974;28;20226;-73
2023/12/08 13:23:55;;;;;;;26.27;14.20;;;;;;;;;;5052700;28;20223;-73
2023/12/08 13:26:22;;;;;;;29.03;14.93;;;;;;;;;;5052122;28;20230;-73
2023/12/08 13:28:50;;;;;;;28.00;14.27;;;;;;;;;;5051339;28;20213;-73
2023/12/08 13:31:17;;;;;;;24.67;13.07;;;;;;;;;;5051693;28;20223;-73
2023/12/08 13:33:46;;;;;;;28.57;15.07;;;;;;;;;;5052790;28;20642;-74
2023/12/08 13:36:13;;;;;;;25.57;14.53;;;;;;;;;;5051855;28;20317;-74
2023/12/08 13:38:40;;;;;;;26.57;15.30;;;;;;;;;;5052438;28;20206;-74
2023/12/08 13:41:07;;;;;;;24.53;14.00;;;;;;;;;;5051619;28;20236;-74
2023/12/08 13:43:34;;;;;;;29.57;15.50;;;;;;;;;;5052192;28;20597;-73
2023/12/08 13:46:01;;;;;;;29.93;15.27;;;;;;;;;;5052071;28;20312;-73
2023/12/08 13:48:28;;;;;;;24.40;13.13;;;;;;;;;;5052321;28;20198;-73
2023/12/08 13:50:56;;;;;;;33.47;14.70;;;;;;;;;;5051111;28;20232;-73
2023/12/08 13:53:24;;;;;;;27.23;13.63;;;;;;;;;;5045001;28;20685;-74
2023/12/08 13:55:51;;;;;;;29.63;13.20;;;;;;;;;;5051227;28;20235;-73
2023/12/08 13:58:17;;;;;;;28.83;14.37;;;;;;;;;;5052407;28;20199;-74
2023/12/08 14:00:45;;;;;;;30.47;13.77;;;;;;;;;;5051100;28;20682;-75
2023/12/08 14:03:12;;;;;;;25.93;13.13;;;;;;;;;;5051780;28;20312;-75
2023/12/08 14:05:39;;;;;;;25.33;14.43;;;;;;;;;;5051648;28;20245;-74
2023/12/08 14:08:08;;;;;;;27.90;15.90;;;;;;;;;;5050548;28;20712;-74
2023/12/08 14:10:35;;;;;;;48.07;17.73;;;;;;;;;;5047260;28;20316;-73
2023/12/08 14:13:04;;;;;;;32.83;17.00;;;;;;;;;;5043775;28;20889;-74
2023/12/08 14:15:31;;;;;;;36.80;17.90;;;;;;;;;;5046191;28;20241;-74
2023/12/08 14:17:58;;;;;;;29.07;14.63;;;;;;;;;;5050947;28;20273;-74
2023/12/08 14:20:25;;;;;;;26.63;14.33;;;;;;;;;;5050144;28;20288;-74
2023/12/08 14:22:52;;;;;;;28.70;14.90;;;;;;;;;;5050706;28;20227;-73